Flight Track Log - Related Links

Times and Time Zones

All times are in EDT time to prevent confusion due to time zone crossing. See the N75AW flight status page for this flight to view local times or setup timezone preferences in your user account.

Time Position Orientation Groundspeed Altitude Reporting Facility
EDT Latitude Longitude Course Direction KTS MPH feet Rate Location/Type
Thu 09:45:41 AM 26.1014 -81.7378 166° South 160 184 4,300  Level Miami Center
Thu 09:46:41 AM 26.0658 -81.7342 175° South 147 169 6,600 2,200 Climbing Miami Center
Thu 09:47:41 AM 26.0242 -81.7347 181° South 154 177 8,700 1,750 Climbing Miami Center
Thu 09:48:41 AM 25.9781 -81.7375 183° South 160 184 10,100 1,041 Climbing Miami Center
Thu 09:49:42 AM 25.9175 -81.7419 184° South 191 220 10,800 1,100 Climbing Miami Center
Thu 09:50:00 AM 25.8548 -81.6037 166° South  Level FlightAware Approximate
Thu 09:50:41 AM 25.8567 -81.7442 182° South 211 243 12,300  Level Miami Center
Thu 09:51:00 AM 25.8006 -81.5883 166° South  Level FlightAware Approximate
Thu 09:51:41 AM 25.7983 -81.7417 178° South 217 250 13,100  Level Miami Center
Thu 09:52:41 AM 25.7253 -81.7456 183° South 236 272 13,200  Climbing Miami Center
Thu 09:53:41 AM 25.6603 -81.7500 184° South 256 295 13,100 -100 Descending Miami Center
Thu 09:54:41 AM 25.5872 -81.7492 179° South 268 308 13,000 -400 Descending Miami Center
Thu 09:55:41 AM 25.5078 -81.7531 183° South 273 314 12,300 -700 Descending Miami Center
Thu 09:56:41 AM 25.4286 -81.7497 178° South 273 314 11,600 -800 Descending Miami Center
Thu 09:57:41 AM 25.3511 -81.7536 183° South 278 320 10,700 -850 Descending Miami Center
Thu 09:58:41 AM 25.2739 -81.7528 179° South 278 320 9,900 -750 Descending Miami Center
Thu 09:59:41 AM 25.1986 -81.7542 181° South 278 320 9,200 -700 Descending Miami Center
Thu 10:00:41 AM 25.1256 -81.7558 181° South 272 313 8,500 -550 Descending Miami Center
Thu 10:01:41 AM 25.0525 -81.7575 181° South 272 313 8,100 -200 Descending Miami Center
Thu 10:02:41 AM 24.9814 -81.7594 181° South 267 307 8,100 -650 Level Miami Center
Thu 10:03:41 AM 24.9097 -81.7772 193° South 267 307 6,800 -1,500 Descending Miami Center
Thu 10:04:41 AM 24.8339 -81.7947 192° South 273 314 5,100 -1,500 Descending Miami Center
Thu 10:05:41 AM 24.7667 -81.8125 194° South 273 314 3,800 -1,300 Descending Miami Center
Thu 10:06:41 AM 24.6992 -81.8281 192° South 257 296 2,500 -1,300 Descending Miami Center
Thu 10:08:00 AM 24.6303 -81.7920 155° Southeast  Level FlightAware Approximate
Thu 10:15:00 AM 24.5561 -81.7596 180° South  Level Estimated
Thu 10:16:00 AM 24.5561 -81.7596 180° South  Level Estimated
Thu 10:17:00 AM 24.5561 -81.7596 180° South  Level Estimated
Thu 10:18:00 AM 24.5561 -81.7596 180° South  Level Estimated

Login

Don't have an account? Register now (free) for customized features, flight alerts, and more!